createdAt,value
2022-09-23T00:01:09.239Z,2.60
2022-09-23T00:03:12.208Z,3.00
2022-09-23T00:05:15.574Z,2.67
2022-09-23T00:07:18.170Z,2.50
2022-09-23T00:09:20.702Z,2.80
2022-09-23T00:11:28.882Z,2.97
2022-09-23T00:13:31.525Z,2.40
2022-09-23T00:15:39.540Z,2.30
2022-09-23T00:17:42.614Z,2.40
2022-09-23T00:19:45.195Z,2.70
2022-09-23T00:21:47.757Z,2.40
2022-09-23T00:23:50.525Z,2.20
2022-09-23T00:25:57.752Z,2.23
2022-09-23T00:28:00.338Z,2.70
2022-09-23T00:30:06.657Z,2.63
2022-09-23T00:32:09.300Z,2.57
2022-09-23T00:34:11.840Z,2.38
2022-09-23T00:36:16.395Z,2.60
2022-09-23T00:38:19.320Z,2.80
2022-09-23T00:40:21.944Z,3.20
2022-09-23T00:42:24.939Z,2.47
2022-09-23T00:44:49.516Z,2.70
2022-09-23T00:46:52.716Z,2.80
2022-09-23T00:49:12.502Z,3.10
2022-09-23T00:51:20.993Z,3.33
2022-09-23T00:53:26.805Z,2.63
2022-09-23T00:55:35.549Z,2.70
2022-09-23T00:58:11.144Z,2.90
2022-09-23T01:00:14.848Z,3.20
2022-09-23T01:02:21.186Z,3.37
2022-09-23T01:04:26.993Z,2.87
2022-09-23T01:06:29.894Z,3.53
2022-09-23T01:08:32.552Z,2.90
2022-09-23T01:11:06.168Z,3.20
2022-09-23T01:13:34.006Z,2.73
2022-09-23T01:15:44.802Z,2.43
2022-09-23T01:18:33.077Z,3.83
2022-09-23T01:21:02.211Z,3.50
2022-09-23T01:23:28.739Z,3.22
2022-09-23T01:26:05.733Z,2.87
2022-09-23T01:28:48.172Z,2.97
2022-09-23T01:31:11.772Z,2.80
2022-09-23T01:33:31.873Z,2.53
2022-09-23T01:36:14.271Z,2.90
2022-09-23T01:38:48.509Z,2.97
2022-09-23T01:40:59.950Z,2.77
2022-09-23T01:43:13.669Z,2.77
2022-09-23T01:45:41.517Z,2.70
2022-09-23T01:47:55.141Z,2.45
2022-09-23T01:50:33.305Z,2.43
2022-09-23T01:52:47.329Z,1.90
2022-09-23T01:55:02.714Z,2.60
2022-09-23T01:57:23.768Z,2.57
2022-09-23T01:59:58.458Z,2.80
2022-09-23T02:02:29.373Z,2.80
2022-09-23T02:04:41.096Z,2.83
2022-09-23T02:06:54.487Z,2.70
2022-09-23T02:09:03.284Z,2.60
2022-09-23T02:11:11.238Z,2.67
2022-09-23T02:13:30.187Z,2.60
2022-09-23T02:15:58.325Z,2.37
2022-09-23T02:18:34.558Z,2.07
2022-09-23T02:20:41.310Z,2.43
2022-09-23T02:23:12.480Z,2.40
2022-09-23T02:25:17.986Z,2.20
2022-09-23T02:28:09.492Z,2.37
2022-09-23T02:30:28.631Z,2.57
2022-09-23T02:32:55.096Z,2.63
2022-09-23T02:35:15.691Z,2.57
2022-09-23T02:37:40.639Z,2.97
2022-09-23T02:40:00.521Z,2.90
2022-09-23T02:42:10.070Z,2.60
2022-09-23T02:44:17.146Z,2.70
2022-09-23T02:46:20.465Z,2.30
2022-09-23T02:48:47.603Z,2.33
2022-09-23T02:50:50.474Z,1.90
2022-09-23T02:52:53.003Z,3.10
2022-09-23T02:54:56.240Z,2.10
2022-09-23T02:57:02.865Z,2.53
2022-09-23T02:59:06.258Z,2.40
2022-09-23T03:01:27.167Z,3.20
2022-09-23T03:04:07.183Z,2.90
2022-09-23T03:07:01.948Z,2.13
2022-09-23T03:09:21.747Z,2.37
2022-09-23T03:11:24.776Z,2.53
2022-09-23T03:13:51.148Z,2.30
2022-09-23T03:16:06.146Z,2.30
2022-09-23T03:18:17.500Z,2.90
2022-09-23T03:20:28.076Z,3.00
2022-09-23T03:22:37.803Z,2.80
2022-09-23T03:24:44.916Z,3.50
2022-09-23T03:26:48.918Z,3.17
2022-09-23T03:28:53.182Z,3.40
2022-09-23T03:31:00.356Z,3.07
2022-09-23T03:33:08.571Z,3.10
2022-09-23T03:35:13.691Z,3.03
2022-09-23T03:37:24.022Z,3.20
2022-09-23T03:39:52.678Z,2.90
2022-09-23T03:41:59.958Z,2.83
2022-09-23T03:44:03.285Z,3.10
2022-09-23T03:46:08.246Z,2.93
2022-09-23T03:48:10.877Z,2.50
2022-09-23T03:50:14.658Z,3.47
2022-09-23T03:52:20.844Z,2.50
2022-09-23T03:54:24.327Z,2.57
2022-09-23T03:56:26.870Z,2.20
2022-09-23T03:58:29.411Z,2.50
2022-09-23T04:00:32.048Z,2.97
2022-09-23T04:02:42.582Z,2.40
2022-09-23T04:04:45.385Z,2.37
2022-09-23T04:06:48.297Z,2.73
2022-09-23T04:08:50.840Z,2.40
2022-09-23T04:10:54.987Z,2.67
2022-09-23T04:12:57.638Z,2.43
2022-09-23T04:15:00.211Z,3.00
2022-09-23T04:17:02.836Z,3.10
2022-09-23T04:19:05.424Z,2.87
2022-09-23T04:21:07.972Z,3.05
2022-09-23T04:23:10.626Z,5.53
2022-09-23T04:25:13.152Z,20.27
2022-09-23T04:27:15.731Z,62.65
2022-09-23T04:29:18.447Z,124.27
2022-09-23T04:31:23.587Z,130.03
2022-09-23T04:33:26.419Z,113.80
2022-09-23T04:35:30.293Z,82.97
2022-09-23T04:37:32.844Z,70.35
2022-09-23T04:39:35.379Z,42.10
2022-09-23T04:41:50.256Z,18.63
2022-09-23T04:43:52.998Z,14.87
2022-09-23T04:46:07.024Z,9.17
2022-09-23T04:48:13.958Z,7.90
2022-09-23T04:50:16.976Z,7.10
2022-09-23T04:52:27.681Z,6.77
2022-09-23T04:54:30.291Z,6.45
2022-09-23T04:56:39.858Z,7.23
2022-09-23T04:58:44.319Z,6.10
2022-09-23T05:00:46.997Z,5.50
2022-09-23T05:02:50.693Z,5.00
2022-09-23T05:04:53.222Z,5.10
2022-09-23T05:06:57.462Z,4.90
2022-09-23T05:09:06.667Z,3.93
2022-09-23T05:11:14.720Z,4.30
2022-09-23T05:13:17.308Z,3.43
2022-09-23T05:15:21.226Z,3.63
2022-09-23T05:17:24.111Z,4.07
2022-09-23T05:19:26.680Z,3.90
2022-09-23T05:21:29.744Z,4.67
2022-09-23T05:23:32.352Z,4.73
2022-09-23T05:25:38.192Z,4.20
2022-09-23T05:27:41.226Z,4.20
2022-09-23T05:29:43.835Z,3.70
2022-09-23T05:31:46.636Z,4.38
2022-09-23T05:33:53.543Z,4.27
2022-09-23T05:35:56.126Z,4.80
2022-09-23T05:37:58.656Z,4.27
2022-09-23T05:40:01.454Z,4.13
2022-09-23T05:42:04.992Z,4.50
2022-09-23T05:44:07.574Z,4.20
2022-09-23T05:46:26.402Z,4.40
2022-09-23T05:48:31.669Z,4.50
2022-09-23T05:50:34.263Z,4.50
2022-09-23T05:52:37.500Z,3.83
2022-09-23T05:54:42.752Z,3.97
2022-09-23T05:56:45.402Z,3.73
2022-09-23T05:58:55.799Z,4.90
2022-09-23T06:00:58.904Z,4.57
2022-09-23T06:03:01.559Z,4.50
2022-09-23T06:05:06.724Z,3.90
2022-09-23T06:07:11.592Z,4.32
2022-09-23T06:09:15.306Z,4.80
2022-09-23T06:11:18.012Z,4.83
2022-09-23T06:13:22.697Z,4.40
2022-09-23T06:15:25.294Z,4.37
2022-09-23T06:18:14.257Z,5.00
2022-09-23T06:24:15.506Z,5.43
2022-09-23T06:26:20.130Z,6.17
2022-09-23T06:28:34.766Z,6.07
2022-09-23T06:30:37.344Z,5.83
2022-09-23T06:32:40.029Z,5.20
2022-09-23T06:34:51.624Z,5.33
2022-09-23T06:36:55.676Z,5.00
2022-09-23T06:38:58.249Z,4.82
2022-09-23T06:41:02.539Z,4.93
2022-09-23T06:43:05.217Z,4.60
2022-09-23T06:45:11.883Z,5.10
2022-09-23T06:47:14.467Z,4.10
2022-09-23T06:49:17.473Z,4.25
2022-09-23T06:51:20.131Z,4.50
2022-09-23T06:53:25.655Z,4.30
2022-09-23T06:55:29.169Z,3.47
2022-09-23T06:57:33.240Z,3.13
2022-09-23T06:59:35.840Z,4.00
2022-09-23T07:01:38.665Z,3.93
2022-09-23T07:03:41.393Z,3.83
2022-09-23T07:05:43.966Z,3.38
2022-09-23T07:07:46.524Z,4.87
2022-09-23T07:09:49.918Z,4.00
2022-09-23T07:11:52.505Z,4.22
2022-09-23T07:13:55.084Z,4.87
2022-09-23T07:15:59.017Z,4.10
2022-09-23T07:18:03.140Z,4.07
2022-09-23T07:20:06.288Z,6.13
2022-09-23T07:22:11.617Z,6.07
2022-09-23T07:24:14.246Z,4.90
2022-09-23T07:26:19.767Z,4.97
2022-09-23T07:28:29.083Z,5.13
2022-09-23T07:30:43.091Z,4.80
2022-09-23T07:32:49.404Z,7.47
2022-09-23T07:34:53.418Z,5.93
2022-09-23T07:36:58.927Z,6.00
2022-09-23T07:39:03.452Z,6.30
2022-09-23T07:41:10.945Z,6.23
2022-09-23T07:43:14.060Z,6.93
2022-09-23T07:45:19.215Z,6.60
2022-09-23T07:47:21.869Z,8.93
2022-09-23T07:49:25.780Z,6.90
2022-09-23T07:51:36.027Z,6.80
2022-09-23T08:14:42.566Z,5.40
2022-09-23T08:16:47.118Z,5.17
2022-09-23T08:18:51.296Z,6.20
2022-09-23T08:20:53.887Z,4.80
2022-09-23T08:22:56.428Z,5.00
2022-09-23T08:24:58.998Z,4.67
2022-09-23T08:27:01.908Z,4.10
2022-09-23T08:29:06.518Z,4.33
2022-09-23T08:31:09.134Z,5.60
2022-09-23T08:33:12.415Z,4.68
2022-09-23T08:35:15.173Z,6.50
2022-09-23T08:37:17.979Z,5.67
2022-09-23T08:39:21.221Z,5.55
2022-09-23T08:41:42.553Z,5.30
2022-09-23T08:43:53.595Z,4.45
2022-09-23T08:46:00.808Z,5.50
2022-09-23T08:48:13.238Z,4.60
2022-09-23T08:50:22.052Z,4.28
2022-09-23T08:52:50.313Z,4.33
2022-09-23T08:54:55.587Z,4.20
2022-09-23T08:57:17.826Z,3.83
2022-09-23T09:00:05.547Z,3.80
2022-09-23T09:02:21.029Z,3.90
2022-09-23T09:04:49.385Z,3.00
2022-09-23T09:07:35.172Z,3.38
2022-09-23T09:10:05.353Z,3.97
2022-09-23T09:15:25.159Z,3.10
2022-09-23T09:17:46.007Z,2.72
2022-09-23T09:20:08.241Z,2.70
2022-09-23T09:22:24.897Z,3.57
2022-09-23T09:24:45.049Z,3.60
2022-09-23T09:29:36.963Z,2.80
2022-09-23T09:31:48.955Z,3.13
2022-09-23T09:34:02.188Z,3.30
2022-09-23T09:36:33.150Z,2.90
2022-09-23T09:38:40.737Z,3.60
2022-09-23T09:40:52.093Z,3.60
2022-09-23T09:42:57.841Z,3.20
2022-09-23T09:45:57.782Z,2.50
2022-09-23T09:48:33.158Z,3.40
2022-09-23T09:50:52.262Z,3.47
2022-09-23T09:53:28.146Z,2.80
2022-09-23T09:55:33.033Z,2.27
2022-09-23T09:58:05.225Z,2.50
2022-09-23T10:00:46.242Z,2.30
2022-09-23T10:03:06.391Z,1.73
2022-09-23T10:06:02.395Z,1.80
2022-09-23T10:08:40.762Z,2.13
2022-09-23T10:11:45.000Z,2.50
2022-09-23T10:14:21.558Z,2.20
2022-09-23T10:20:39.085Z,1.83
2022-09-23T10:23:33.892Z,1.87
2022-09-23T10:26:39.121Z,2.10
2022-09-23T10:28:50.434Z,1.73
2022-09-23T10:32:06.995Z,1.70
2022-09-23T10:34:59.859Z,1.40
2022-09-23T10:37:39.287Z,1.60
2022-09-23T10:40:41.899Z,2.00
2022-09-23T10:43:30.140Z,1.73
2022-09-23T10:45:59.152Z,1.93
2022-09-23T10:48:40.814Z,1.70
2022-09-23T10:50:51.906Z,1.73
2022-09-23T10:56:51.373Z,2.13
2022-09-23T10:59:36.761Z,1.60
2022-09-23T11:02:24.779Z,1.87
2022-09-23T11:04:51.173Z,1.70
2022-09-23T11:07:59.676Z,1.90
2022-09-23T11:10:45.394Z,2.53
2022-09-23T11:16:54.693Z,2.33
2022-09-23T11:19:45.958Z,1.70
2022-09-23T11:22:21.879Z,2.27
2022-09-23T11:24:58.284Z,1.97
2022-09-23T11:27:26.695Z,1.93
2022-09-23T11:30:03.394Z,1.40
2022-09-23T11:32:40.351Z,1.60
2022-09-23T11:51:31.674Z,1.57
2022-09-23T11:53:50.050Z,1.70
2022-09-23T11:56:29.864Z,1.50
2022-09-23T11:59:40.629Z,1.50
2022-09-23T12:03:03.017Z,1.70
2022-09-23T12:05:21.304Z,1.20
2022-09-23T12:07:54.127Z,1.50
2022-09-23T12:10:07.050Z,1.70
2022-09-23T12:12:48.897Z,1.57
2022-09-23T12:15:08.981Z,1.43
2022-09-23T12:17:40.902Z,1.10
2022-09-23T12:20:03.177Z,1.20
2022-09-23T12:22:34.454Z,1.00
2022-09-23T12:25:17.369Z,1.37
2022-09-23T12:34:49.146Z,1.67
2022-09-23T12:36:52.079Z,1.40
2022-09-23T12:39:19.384Z,1.30
2022-09-23T12:41:40.908Z,1.20
2022-09-23T12:44:15.000Z,1.33
2022-09-23T12:46:25.744Z,1.23
2022-09-23T12:48:46.189Z,1.00
2022-09-23T12:50:53.755Z,1.40
2022-09-23T12:52:56.670Z,1.60
2022-09-23T12:55:22.208Z,1.30
2022-09-23T12:57:36.632Z,1.20
2022-09-23T13:00:12.675Z,1.20
2022-09-23T13:02:29.211Z,1.02
2022-09-23T13:05:01.206Z,1.00
2022-09-23T13:07:09.463Z,1.15
2022-09-23T13:09:32.377Z,1.07
2022-09-23T13:11:40.474Z,1.00
2022-09-23T13:13:45.787Z,0.90
2022-09-23T13:15:48.726Z,1.10
2022-09-23T13:17:51.326Z,1.00
2022-09-23T13:20:19.978Z,1.10
2022-09-23T13:23:03.962Z,0.93
2022-09-23T13:25:41.249Z,1.07
2022-09-23T13:27:47.898Z,1.20
2022-09-23T13:30:03.415Z,1.17
2022-09-23T13:32:20.183Z,1.00
2022-09-23T13:34:27.256Z,1.33
2022-09-23T13:36:29.902Z,1.30
2022-09-23T13:38:33.464Z,1.00
2022-09-23T13:40:37.246Z,1.30
2022-09-23T13:42:41.959Z,0.93
2022-09-23T13:44:45.933Z,1.10
2022-09-23T13:46:58.324Z,1.00
2022-09-23T13:49:00.996Z,1.10
2022-09-23T13:51:11.631Z,1.10
2022-09-23T13:53:25.802Z,0.93
2022-09-23T13:55:32.827Z,0.90
2022-09-23T13:57:35.531Z,1.10
2022-09-23T13:59:42.251Z,1.77
2022-09-23T14:01:47.206Z,1.40
2022-09-23T14:03:51.430Z,2.00
2022-09-23T14:05:56.506Z,1.47
2022-09-23T14:08:00.505Z,1.50
2022-09-23T14:10:05.879Z,1.30
2022-09-23T14:12:10.390Z,1.50
2022-09-23T14:14:15.787Z,1.37
2022-09-23T14:16:19.758Z,1.30
2022-09-23T14:18:43.124Z,1.07
2022-09-23T14:20:50.327Z,1.30
2022-09-23T14:23:14.741Z,1.07
2022-09-23T14:25:51.601Z,1.20
2022-09-23T14:27:57.363Z,1.10
2022-09-23T14:30:04.679Z,1.23
2022-09-23T14:32:31.296Z,1.17
2022-09-23T14:35:05.687Z,1.00
2022-09-23T14:37:58.818Z,1.07
2022-09-23T14:40:01.869Z,1.30
2022-09-23T14:42:21.688Z,1.10
2022-09-23T14:44:26.463Z,0.70
2022-09-23T14:46:35.997Z,0.90
2022-09-23T14:48:38.692Z,1.00
2022-09-23T14:50:49.380Z,1.07
2022-09-23T14:52:52.254Z,0.97
2022-09-23T14:54:54.898Z,0.90
2022-09-23T14:56:57.824Z,1.10
2022-09-23T14:59:00.774Z,1.43
2022-09-23T15:01:05.149Z,1.23
2022-09-23T15:03:15.408Z,0.97
2022-09-23T15:05:23.851Z,1.30
2022-09-23T15:07:26.811Z,1.35
2022-09-23T15:09:33.433Z,1.40
2022-09-23T15:11:36.418Z,1.10
2022-09-23T15:13:44.291Z,1.00
2022-09-23T15:15:47.308Z,1.00
2022-09-23T15:17:50.035Z,0.90
2022-09-23T15:19:57.668Z,1.10
2022-09-23T15:22:00.305Z,1.50
2022-09-23T15:24:03.070Z,1.10
2022-09-23T15:26:11.541Z,1.37
2022-09-23T15:28:18.227Z,1.00
2022-09-23T15:30:21.240Z,1.00
2022-09-23T15:32:24.507Z,1.10
2022-09-23T15:34:27.076Z,1.00
2022-09-23T15:36:29.816Z,1.25
2022-09-23T15:38:32.966Z,0.87
2022-09-23T15:40:37.691Z,0.90
2022-09-23T15:42:40.573Z,0.83
2022-09-23T15:44:43.485Z,0.90
2022-09-23T15:46:48.783Z,0.97
2022-09-23T15:49:17.214Z,0.80
2022-09-23T15:51:20.774Z,1.47
2022-09-23T15:53:27.242Z,1.13
2022-09-23T15:55:32.144Z,1.20
2022-09-23T15:57:34.724Z,1.40
2022-09-23T15:59:38.200Z,1.10
2022-09-23T16:01:44.147Z,1.20
2022-09-23T16:03:46.828Z,1.43
2022-09-23T16:05:50.406Z,1.57
2022-09-23T16:07:53.201Z,1.40
2022-09-23T16:09:58.697Z,1.10
2022-09-23T16:12:02.843Z,1.67
2022-09-23T16:14:05.418Z,1.60
2022-09-23T16:16:08.908Z,1.60
2022-09-23T16:18:12.746Z,1.53
2022-09-23T16:20:17.827Z,1.20
2022-09-23T16:22:20.450Z,1.30
2022-09-23T16:24:27.429Z,1.63
2022-09-23T16:26:34.722Z,1.10
2022-09-23T16:28:37.886Z,1.40
2022-09-23T16:30:47.762Z,1.47
2022-09-23T16:32:51.779Z,1.40
2022-09-23T16:34:54.337Z,1.30
2022-09-23T16:36:56.992Z,1.27
2022-09-23T16:39:07.002Z,0.90
2022-09-23T16:41:11.406Z,1.00
2022-09-23T16:43:42.460Z,1.50
2022-09-23T16:45:47.171Z,1.60
2022-09-23T16:47:51.917Z,1.20
2022-09-23T16:49:54.505Z,1.60
2022-09-23T16:51:57.042Z,2.30
2022-09-23T16:54:00.251Z,2.13
2022-09-23T16:56:09.673Z,2.10
2022-09-23T16:58:17.203Z,2.28
2022-09-23T17:00:38.683Z,1.93
2022-09-23T17:03:00.180Z,1.90
2022-09-23T17:05:04.125Z,2.47
2022-09-23T17:07:12.821Z,2.20
2022-09-23T17:09:42.034Z,1.42
2022-09-23T17:11:47.906Z,1.77
2022-09-23T17:13:50.760Z,1.70
2022-09-23T17:15:55.596Z,1.60
2022-09-23T17:18:08.701Z,2.20
2022-09-23T17:20:13.212Z,1.30
2022-09-23T17:22:15.759Z,1.63
2022-09-23T17:24:18.340Z,1.60
2022-09-23T17:26:23.377Z,1.17
2022-09-23T17:28:25.992Z,1.40
2022-09-23T17:30:28.893Z,1.10
2022-09-23T17:32:31.836Z,1.43
2022-09-23T17:34:35.068Z,1.40
2022-09-23T17:37:04.218Z,1.10
2022-09-23T17:39:07.268Z,1.20
2022-09-23T17:41:10.293Z,1.10
2022-09-23T17:43:13.299Z,1.20
2022-09-23T17:45:15.990Z,1.03
2022-09-23T17:47:18.629Z,1.17
2022-09-23T17:49:22.033Z,1.07
2022-09-23T17:51:25.612Z,1.00
2022-09-23T17:53:31.852Z,0.90
2022-09-23T17:55:34.408Z,1.37
2022-09-23T17:57:37.001Z,1.33
2022-09-23T17:59:39.659Z,1.30
2022-09-23T18:01:42.326Z,1.07
2022-09-23T18:03:45.253Z,1.13
2022-09-23T18:05:48.138Z,1.23
2022-09-23T18:07:50.748Z,1.10
2022-09-23T18:09:53.342Z,1.37
2022-09-23T18:11:56.453Z,1.67
2022-09-23T18:14:03.310Z,1.63
2022-09-23T18:16:06.237Z,1.70
2022-09-23T18:18:08.975Z,1.60
2022-09-23T18:20:11.570Z,1.57
2022-09-23T18:22:14.259Z,1.33
2022-09-23T18:24:31.952Z,1.50
2022-09-23T18:26:35.681Z,1.93
2022-09-23T18:28:38.244Z,1.90
2022-09-23T18:30:56.592Z,1.83
2022-09-23T18:32:59.868Z,1.58
2022-09-23T18:35:02.514Z,1.47
2022-09-23T18:37:14.996Z,1.70
2022-09-23T18:39:18.472Z,1.80
2022-09-23T18:41:22.573Z,1.80
2022-09-23T18:43:37.258Z,1.60
2022-09-23T18:45:43.347Z,1.67
2022-09-23T18:48:04.417Z,2.40
2022-09-23T18:51:02.823Z,1.83
2022-09-23T18:53:17.267Z,1.90
2022-09-23T18:55:19.820Z,2.20
2022-09-23T18:57:22.361Z,2.17
2022-09-23T18:59:41.135Z,2.10
2022-09-23T19:01:45.932Z,2.40
2022-09-23T19:03:48.913Z,2.23
2022-09-23T19:05:51.562Z,3.50
2022-09-23T19:07:54.106Z,2.80
2022-09-23T19:09:56.687Z,2.87
2022-09-23T19:11:59.367Z,2.67
2022-09-23T19:14:03.877Z,2.80
2022-09-23T19:16:10.692Z,2.50
2022-09-23T19:18:13.292Z,2.70
2022-09-23T19:20:15.938Z,2.40
2022-09-23T19:22:32.864Z,2.70
2022-09-23T19:24:35.413Z,2.53
2022-09-23T19:26:40.653Z,2.40
2022-09-23T19:28:50.056Z,2.60
2022-09-23T19:31:44.017Z,2.57
2022-09-23T19:33:57.409Z,2.17
2022-09-23T19:36:00.003Z,2.40
2022-09-23T19:38:10.694Z,2.50
2022-09-23T19:40:13.551Z,3.23
2022-09-23T19:42:16.202Z,2.50
2022-09-23T19:44:20.280Z,2.80
2022-09-23T19:46:23.233Z,2.87
2022-09-23T19:48:25.832Z,3.47
2022-09-23T19:50:34.477Z,3.23
2022-09-23T19:52:37.874Z,3.77
2022-09-23T19:54:40.430Z,3.20
2022-09-23T19:56:47.757Z,3.80
2022-09-23T19:58:54.241Z,3.30
2022-09-23T20:00:57.564Z,3.27
2022-09-23T20:03:00.235Z,3.50
2022-09-23T20:05:02.816Z,2.83
2022-09-23T20:07:05.451Z,3.87
2022-09-23T20:09:08.024Z,3.67
2022-09-23T20:11:30.105Z,4.17
2022-09-23T20:13:33.904Z,4.00
2022-09-23T20:15:37.348Z,4.07
2022-09-23T20:17:42.791Z,4.13
2022-09-23T20:19:45.561Z,3.83
2022-09-23T20:22:08.091Z,3.23
2022-09-23T20:24:12.090Z,3.50
2022-09-23T20:26:33.460Z,3.70
2022-09-23T20:28:36.008Z,3.33
2022-09-23T20:30:39.189Z,3.17
2022-09-23T20:32:44.784Z,2.63
2022-09-23T20:34:48.834Z,3.57
2022-09-23T20:36:51.442Z,3.30
2022-09-23T20:39:00.279Z,3.37
2022-09-23T20:41:03.076Z,3.20
2022-09-23T20:43:18.289Z,2.83
2022-09-23T20:45:20.835Z,3.83
2022-09-23T20:47:24.807Z,4.47
2022-09-23T20:49:34.239Z,4.10
2022-09-23T20:51:40.214Z,3.60
2022-09-23T20:53:43.140Z,3.60
2022-09-23T20:55:50.462Z,4.13
2022-09-23T20:57:53.062Z,4.43
2022-09-23T20:59:55.615Z,4.17
2022-09-23T21:01:58.688Z,4.60
2022-09-23T21:04:04.078Z,3.60
2022-09-23T21:06:08.870Z,4.07
2022-09-23T21:08:12.468Z,3.70
2022-09-23T21:10:15.178Z,3.70
2022-09-23T21:12:17.787Z,3.73
2022-09-23T21:14:22.541Z,3.10
2022-09-23T21:16:25.891Z,3.47
2022-09-23T21:18:28.562Z,3.60
2022-09-23T21:20:31.717Z,3.70
2022-09-23T21:22:38.509Z,3.97
2022-09-23T21:25:16.022Z,3.92
2022-09-23T21:27:03.979Z,4.07
2022-09-23T21:29:06.906Z,3.85
2022-09-23T21:31:22.788Z,3.63
2022-09-23T21:33:25.668Z,3.47
2022-09-23T21:35:28.604Z,3.73
2022-09-23T21:37:45.390Z,3.70
2022-09-23T21:40:08.135Z,3.10
2022-09-23T21:42:12.125Z,3.30
2022-09-23T21:44:14.779Z,2.70
2022-09-23T21:46:20.263Z,2.60
2022-09-23T21:48:24.345Z,3.13
2022-09-23T21:50:29.948Z,3.22
2022-09-23T21:52:32.554Z,3.47
2022-09-23T21:54:35.191Z,3.70
2022-09-23T21:56:37.956Z,3.10
2022-09-23T21:58:42.419Z,3.20
2022-09-23T22:00:45.191Z,3.23
2022-09-23T22:02:47.848Z,3.00
2022-09-23T22:04:50.477Z,3.17
2022-09-23T22:06:54.117Z,3.40
2022-09-23T22:09:01.341Z,3.27
2022-09-23T22:11:33.514Z,3.13
2022-09-23T22:13:36.088Z,2.97
2022-09-23T22:15:38.718Z,2.90
2022-09-23T22:17:41.351Z,2.60
2022-09-23T22:19:47.107Z,2.70
2022-09-23T22:21:50.626Z,2.77
2022-09-23T22:23:54.952Z,3.00
2022-09-23T22:26:02.933Z,3.00
2022-09-23T22:28:24.723Z,2.80
2022-09-23T22:30:45.928Z,2.93
2022-09-23T22:32:54.260Z,2.73
2022-09-23T22:34:57.828Z,2.83
2022-09-23T22:37:01.049Z,2.70
2022-09-23T22:39:06.549Z,2.70
2022-09-23T22:41:14.243Z,2.57
2022-09-23T22:43:16.808Z,2.53
2022-09-23T22:45:19.428Z,2.83
2022-09-23T22:47:24.253Z,2.50
2022-09-23T22:49:26.886Z,2.40
2022-09-23T22:51:29.436Z,2.67
2022-09-23T22:53:32.079Z,2.67
2022-09-23T22:56:10.957Z,2.87
2022-09-23T22:58:31.329Z,2.67
2022-09-23T23:00:34.594Z,2.60
2022-09-23T23:02:37.159Z,3.03
2022-09-23T23:04:39.753Z,3.47
2022-09-23T23:06:42.990Z,3.00
2022-09-23T23:08:46.065Z,2.87
2022-09-23T23:10:48.751Z,2.70
2022-09-23T23:12:52.683Z,2.57
2022-09-23T23:14:56.164Z,2.58
2022-09-23T23:16:59.544Z,2.73
2022-09-23T23:19:12.145Z,2.77
2022-09-23T23:21:18.258Z,2.77
2022-09-23T23:23:20.833Z,3.50
2022-09-23T23:25:23.454Z,3.00
2022-09-23T23:27:26.035Z,2.70
2022-09-23T23:29:28.724Z,2.70
2022-09-23T23:31:32.307Z,3.20
2022-09-23T23:33:35.538Z,2.87
2022-09-23T23:35:38.114Z,2.70
2022-09-23T23:37:40.726Z,2.53
2022-09-23T23:39:43.263Z,2.53
2022-09-23T23:41:45.836Z,2.50
2022-09-23T23:43:55.727Z,2.80
2022-09-23T23:46:00.304Z,3.10
2022-09-23T23:48:13.633Z,2.87
2022-09-23T23:50:16.224Z,2.97
2022-09-23T23:52:18.772Z,2.50
2022-09-23T23:54:21.654Z,2.80
2022-09-23T23:56:26.332Z,2.50
2022-09-23T23:58:29.592Z,2.40
